^^
Station Historical Data
Daily Summary for November 7, 2017 Units:  Metric    English   Both
« Previous Day
Next Day »
Daily Weekly Monthly Yearly Custom
  High: Low: Average:
Temperature: 36.8 °C 20.3 °C 26.9 °C
Dew Point: 7 °C -16.1 °C 2 °C
Humidity: 40% 3% 24%
Wind Speed: 25.9km/h 0km/h 9.2km/h
Wind Gust: 32.2km/h - -
Wind- - SSW
Pressure: 1005 hPa 1000.9 hPa -
Precipitation: 0 mm    
Historical Graphs
 
 
Tabular Data for November 7, 2017
Time Temperature Dew Point Pressure Wind Wind Speed Wind Gust Humidity Rainfall Rate (Hourly) solar Conditions
00:01 28 °C 6.1 °C 1004.3 hPa SSW 13 km/h 19.3 km/h 25% 0 mm 0.0 W/m2
00:06 27.9 °C 6.1 °C 1004.3 hPa SSW 14.3 km/h 16.1 km/h 25% 0 mm 0.0 W/m2
00:11 27.8 °C 6 °C 1004.3 hPa SSW 14.3 km/h 17.7 km/h 25% 0 mm 0.0 W/m2
00:16 27.8 °C 6 °C 1004.3 hPa SSW 16.3 km/h 19.3 km/h 25% 0 mm 0.0 W/m2
00:26 27.5 °C 6.3 °C 1004.3 hPa SSW 17.7 km/h 19.3 km/h 26% 0 mm 0.0 W/m2
00:31 27.4 °C 6.7 °C 1004.3 hPa SSW 14.3 km/h 20.9 km/h 27% 0 mm 0.0 W/m2
00:41 27.1 °C 6.5 °C 1004.3 hPa SSW 16.3 km/h 17.7 km/h 27% 0 mm 0.0 W/m2
00:46 26.9 °C 6.8 °C 1004.3 hPa SSW 9.7 km/h 14.5 km/h 28% 0 mm 0.0 W/m2
00:51 26.8 °C 6.8 °C 1004.3 hPa SSW 13 km/h 13 km/h 28% 0 mm 0.0 W/m2
00:56 26.6 °C 6.6 °C 1004.3 hPa SSW 9.7 km/h 12.9 km/h 28% 0 mm 0.0 W/m2
01:01 26.5 °C 7 °C 1004.3 hPa SSW 6.4 km/h 11.3 km/h 29% 0 mm 0.0 W/m2
01:07 26.4 °C 6.9 °C 1004.3 hPa SSW 7.9 km/h 8 km/h 29% 0 mm 0.0 W/m2
01:17 26.2 °C 6.8 °C 1004.3 hPa SSW 7.9 km/h 9.7 km/h 29% 0 mm 0.0 W/m2
01:22 26 °C 6.6 °C 1003.9 hPa SSW 7.9 km/h 9.7 km/h 29% 0 mm 0.0 W/m2
01:32 25.7 °C 6.8 °C 1003.9 hPa SSW 6.4 km/h 9.7 km/h 30% 0 mm 0.0 W/m2
01:37 25.6 °C 6.7 °C 1003.9 hPa SSW 9.7 km/h 12.9 km/h 30% 0 mm 0.0 W/m2
01:47 25.4 °C 6.6 °C 1003.9 hPa SSW 4.7 km/h 6.4 km/h 30% 0 mm 0.0 W/m2
01:52 25.3 °C 6.5 °C 1003.9 hPa SSW 6.4 km/h 8 km/h 30% 0 mm 0.0 W/m2
01:57 25.1 °C 6.3 °C 1003.9 hPa SSW 6.4 km/h 8 km/h 30% 0 mm 0.0 W/m2
02:07 24.9 °C 6.6 °C 1003.9 hPa SSW 9.7 km/h 9.7 km/h 31% 0 mm 0.0 W/m2
02:17 24.9 °C 6.6 °C 1003.9 hPa SSW 13 km/h 13 km/h 31% 0 mm 0.0 W/m2
02:22 24.9 °C 6.6 °C 1003.6 hPa SSW 7.9 km/h 9.7 km/h 31% 0 mm 0.0 W/m2
02:27 24.8 °C 6.5 °C 1003.6 hPa SSW 9.7 km/h 11.3 km/h 31% 0 mm 0.0 W/m2
02:37 24.7 °C 6.4 °C 1003.6 hPa SSW 7.9 km/h 8 km/h 31% 0 mm 0.0 W/m2
02:43 24.4 °C 6.2 °C 1003.6 hPa SSW 3.2 km/h 6.4 km/h 31% 0 mm 0.0 W/m2
02:48 24.1 °C 6.4 °C 1003.6 hPa SSW 3.2 km/h 4.8 km/h 32% 0 mm 0.0 W/m2
02:53 23.9 °C 6.6 °C 1003.6 hPa SSW 3.2 km/h 4.8 km/h 33% 0 mm 0.0 W/m2
02:58 23.8 °C 6.6 °C 1003.3 hPa SSW 6.4 km/h 6.4 km/h 33% 0 mm 0.0 W/m2
03:03 23.6 °C 6.4 °C 1003.3 hPa SSW 7.9 km/h 8 km/h 33% 0 mm 0.0 W/m2
03:08 23.4 °C 6.2 °C 1003.3 hPa SSW 6.4 km/h 8 km/h 33% 0 mm 0.0 W/m2
03:13 23.3 °C 6.6 °C 1003.3 hPa Calm     34% 0 mm 0.0 W/m2
03:19 23.1 °C 6.4 °C 1003.3 hPa Calm     34% 0 mm 0.0 W/m2
03:24 22.9 °C 6.6 °C 1003.3 hPa Calm     35% 0 mm 0.0 W/m2
03:34 22.8 °C 6.1 °C 1003.3 hPa Calm     34% 0 mm 0.0 W/m2
03:39 22.7 °C 6.4 °C 1003.3 hPa Calm     35% 0 mm 0.0 W/m2
03:49 22.4 °C 6.2 °C 1002.9 hPa Calm     35% 0 mm 0.0 W/m2
03:55 22.4 °C 6.2 °C 1002.9 hPa Calm     35% 0 mm 0.0 W/m2
04:00 22.2 °C 6.4 °C 1003.3 hPa Calm     36% 0 mm 0.0 W/m2
04:09 22.1 °C 6.3 °C 1003.3 hPa Calm     36% 0 mm 0.0 W/m2
04:15 21.9 °C 6.5 °C 1003.3 hPa Calm     37% 0 mm 0.0 W/m2
04:26 21.8 °C 6.5 °C 1003.3 hPa Calm     37% 0 mm 0.0 W/m2
04:31 21.6 °C 6.3 °C 1003.3 hPa Calm     37% 0 mm 0.0 W/m2
04:37 21.6 °C 6.7 °C 1003.3 hPa Calm     38% 0 mm 0.0 W/m2
04:42 21.8 °C 6.8 °C 1003.3 hPa Calm     38% 0 mm 0.0 W/m2
04:47 21.9 °C 6.2 °C 1003.3 hPa Calm     36% 0 mm 0.0 W/m2
04:52 21.9 °C 6.2 °C 1003.3 hPa Calm     36% 0 mm 0.0 W/m2
04:57 21.9 °C 6.2 °C 1003.3 hPa Calm     36% 0 mm 0.0 W/m2
05:02 21.8 °C 6.5 °C 1003.3 hPa Calm     37% 0 mm 0.0 W/m2
05:07 21.6 °C 6.3 °C 1003.6 hPa Calm     37% 0 mm 0.0 W/m2
05:18 21.2 °C 6.3 °C 1003.6 hPa Calm     38% 0 mm 0.0 W/m2
05:23 21.1 °C 6.2 °C 1003.6 hPa Calm     38% 0 mm 0.0 W/m2
05:33 21.1 °C 6.6 °C 1003.6 hPa Calm     39% 0 mm 0.0 W/m2
05:38 20.8 °C 6.3 °C 1003.6 hPa Calm     39% 0 mm 0.0 W/m2
05:44 20.7 °C 6.2 °C 1003.9 hPa Calm     39% 0 mm 0.0 W/m2
05:54 20.4 °C 6.3 °C 1003.9 hPa Calm     40% 0 mm 0.0 W/m2
05:59 20.3 °C 6.3 °C 1003.9 hPa Calm     40% 0 mm 7.0 W/m2
06:04 20.7 °C 6.2 °C 1003.9 hPa Calm     39% 0 mm 11.0 W/m2
06:10 20.7 °C 6.2 °C 1003.9 hPa Calm     39% 0 mm 11.0 W/m2
06:20 20.4 °C 6 °C 1003.9 hPa Calm     39% 0 mm 19.0 W/m2
06:31 20.8 °C 6.3 °C 1003.9 hPa Calm     39% 0 mm 56.0 W/m2
06:41 21.5 °C 6.2 °C 1003.9 hPa Calm     37% 0 mm 86.0 W/m2
06:46 21.8 °C 6.1 °C 1003.9 hPa Calm     36% 0 mm 109.0 W/m2
06:51 22.3 °C 6.5 °C 1003.9 hPa Calm     36% 0 mm 130.0 W/m2
06:57 22.7 °C 6.4 °C 1004.3 hPa SSW 4.7 km/h 8 km/h 35% 0 mm 153.0 W/m2
07:05 23.1 °C 6.8 °C 1004.3 hPa SSW 6.4 km/h 8 km/h 35% 0 mm 172.0 W/m2
07:15 23.7 °C 6.5 °C 1004.3 hPa SSW 11.1 km/h 11.3 km/h 33% 0 mm 214.0 W/m2
07:25 24.2 °C 6.5 °C 1004.3 hPa SSW 9.7 km/h 14.5 km/h 32% 0 mm 250.0 W/m2
07:36 24.6 °C 5.9 °C 1004.3 hPa SSW 11.1 km/h 16.1 km/h 30% 0 mm 287.0 W/m2
07:47 24.9 °C 5.1 °C 1004.3 hPa SSW 9.7 km/h 17.7 km/h 28% 0 mm 322.0 W/m2
08:02 25.6 °C 4.7 °C 1004.3 hPa SSW 7.9 km/h 14.5 km/h 26% 0 mm 371.0 W/m2
08:17 26.1 °C 4.5 °C 1004.3 hPa SSW 11.1 km/h 16.1 km/h 25% 0 mm 427.0 W/m2
08:33 26.7 °C 3.8 °C 1004.3 hPa SSW 11.1 km/h 17.7 km/h 23% 0 mm 476.0 W/m2
08:49 27.2 °C 3 °C 1004.3 hPa SSW 13 km/h 14.5 km/h 21% 0 mm 527.0 W/m2
09:03 27.6 °C 3.3 °C 1004.3 hPa SSW 9.7 km/h 17.7 km/h 21% 0 mm 578.0 W/m2
09:18 28.4 °C 2.6 °C 1003.9 hPa SSW 11.1 km/h 16.1 km/h 19% 0 mm 624.0 W/m2
09:30 28.9 °C 2.2 °C 1004.3 hPa SSW 9.7 km/h 12.9 km/h 18% 0 mm 666.0 W/m2
09:38 29.3 °C 2.5 °C 1004.3 hPa SSW 11.1 km/h 17.7 km/h 18% 0 mm 698.0 W/m2
09:43 29.4 °C 1.8 °C 1003.9 hPa SSW 9.7 km/h 17.7 km/h 17% 0 mm 705.0 W/m2
09:49 29.6 °C 2 °C 1003.9 hPa SSW 14.3 km/h 16.1 km/h 17% 0 mm 722.0 W/m2
10:04 29.8 °C 2.1 °C 1003.9 hPa SSW 9.7 km/h 17.7 km/h 17% 0 mm 749.0 W/m2
10:33 31.3 °C 1.6 °C 1003.9 hPa SSW 13 km/h 16.1 km/h 15% 0 mm 819.0 W/m2
10:45 31.5 °C 0.8 °C 1003.9 hPa SSW 6.4 km/h 12.9 km/h 14% 0 mm 840.0 W/m2
10:58 31.8 °C 1 °C 1003.9 hPa SSW 11.1 km/h 16.1 km/h 14% 0 mm 872.0 W/m2
11:24 32.8 °C 0.8 °C 1003.6 hPa SSW 14.3 km/h 17.7 km/h 13% 0 mm 909.0 W/m2
11:49 33.3 °C 1.2 °C 1003.3 hPa SSW 9.7 km/h 16.1 km/h 13% 0 mm 939.0 W/m2
12:04 33.6 °C 0.3 °C 1002.9 hPa SSW 16.3 km/h 16.3 km/h 12% 0 mm 951.0 W/m2
12:17 34 °C 0.6 °C 1003.3 hPa SSW 11.1 km/h 16.1 km/h 12% 0 mm 956.0 W/m2
12:52 34.7 °C -2.8 °C 1002.9 hPa South 13 km/h 24.1 km/h 9% 0 mm 951.0 W/m2
13:32 35.8 °C -3.6 °C 1002.6 hPa SSW 22.7 km/h 29 km/h 8% 0 mm 935.0 W/m2
13:47 36 °C -7.2 °C 1002.6 hPa SSW 7.9 km/h 19.3 km/h 6% 0 mm 916.0 W/m2
14:01 36.3 °C -7 °C 1002.3 hPa South 14.3 km/h 24.1 km/h 6% 0 mm 898.0 W/m2
14:16 36.2 °C -12.2 °C 1002.3 hPa SSW 9.7 km/h 20.9 km/h 4% 0 mm 870.0 W/m2
14:47 36.4 °C -9.3 °C 1001.9 hPa SSW 16.3 km/h 22.5 km/h 5% 0 mm 819.0 W/m2
15:02 36.3 °C -9.4 °C 1001.9 hPa South 13 km/h 20.9 km/h 5% 0 mm 777.0 W/m2
15:47 36.7 °C -9.1 °C 1001.2 hPa South 20.9 km/h 29 km/h 5% 0 mm 656.0 W/m2
16:17 36.8 °C -9 °C 1000.9 hPa South 17.7 km/h 27.4 km/h 5% 0 mm 559.0 W/m2
16:48 36.5 °C -6.9 °C 1000.9 hPa South 19.5 km/h 27.4 km/h 6% 0 mm 461.0 W/m2
17:04 36.4 °C -9.3 °C 1000.9 hPa South 24.1 km/h 27.4 km/h 5% 0 mm 413.0 W/m2
17:34 36.1 °C -15.8 °C 1000.9 hPa South 25.9 km/h 25.9 km/h 3% 0 mm 306.0 W/m2
17:48 35.7 °C -16.1 °C 1001.2 hPa South 19.5 km/h 25.7 km/h 3% 0 mm 255.0 W/m2
18:03 35.6 °C -12.6 °C 1001.2 hPa South 20.9 km/h 25.7 km/h 4% 0 mm 193.0 W/m2
18:18 35.1 °C -13 °C 1001.2 hPa South 22.7 km/h 27.4 km/h 4% 0 mm 132.0 W/m2
18:48 34.2 °C -8.5 °C 1001.9 hPa South 13 km/h 25.7 km/h 6% 0 mm 35.0 W/m2
19:04 33.8 °C -5 °C 1001.9 hPa South 17.7 km/h 25.7 km/h 8% 0 mm 12.0 W/m2
19:19 33.3 °C -5.4 °C 1001.9 hPa South 19.5 km/h 27.4 km/h 8% 0 mm 0.0 W/m2
19:43 31.9 °C -1 °C 1002.3 hPa SSW 19.5 km/h 22.5 km/h 12% 0 mm 0.0 W/m2
19:53 31.7 °C -1.2 °C 1002.3 hPa SSW 17.7 km/h 22.5 km/h 12% 0 mm 0.0 W/m2
20:09 31.2 °C -1.6 °C 1002.6 hPa SSW 19.5 km/h 22.5 km/h 12% 0 mm 0.0 W/m2
20:24 30.6 °C -1 °C 1002.9 hPa SSW 16.3 km/h 24.1 km/h 13% 0 mm 0.0 W/m2
20:37 30.2 °C -2.4 °C 1003.3 hPa SSW 25.9 km/h 32.2 km/h 12% 0 mm 0.0 W/m2
21:05 29.5 °C -4.1 °C 1003.6 hPa SSW 22.7 km/h 25.7 km/h 11% 0 mm 0.0 W/m2
21:20 29 °C -3.3 °C 1003.6 hPa SSW 16.3 km/h 19.3 km/h 12% 0 mm 0.0 W/m2
21:34 28.6 °C -1.5 °C 1003.6 hPa SSW 11.1 km/h 17.7 km/h 14% 0 mm 0.0 W/m2
22:00 28.1 °C -1 °C 1003.9 hPa SSW 13 km/h 17.7 km/h 15% 0 mm 0.0 W/m2
22:11 27.7 °C -1.3 °C 1004.3 hPa SSW 9.7 km/h 14.5 km/h 15% 0 mm 0.0 W/m2
22:20 27.4 °C -1.5 °C 1004.3 hPa SSW 9.7 km/h 16.1 km/h 15% 0 mm 0.0 W/m2
22:25 27.2 °C -1.7 °C 1004.6 hPa SSW 11.1 km/h 14.5 km/h 15% 0 mm 0.0 W/m2
22:35 27.1 °C -1.8 °C 1004.6 hPa SSW 9.7 km/h 16.1 km/h 15% 0 mm 0.0 W/m2
22:40 27.1 °C -1.8 °C 1004.6 hPa SSW 14.3 km/h 16.1 km/h 15% 0 mm 0.0 W/m2
22:46 27 °C -2.8 °C 1004.6 hPa SSW 14.3 km/h 17.7 km/h 14% 0 mm 0.0 W/m2
22:55 26.9 °C -2.9 °C 1004.6 hPa SSW 11.1 km/h 17.7 km/h 14% 0 mm 0.0 W/m2
23:00 26.8 °C -2.9 °C 1004.6 hPa SSW 13 km/h 16.1 km/h 14% 0 mm 0.0 W/m2
23:06 26.6 °C -2.2 °C 1004.6 hPa SSW 13 km/h 14.5 km/h 15% 0 mm 0.0 W/m2
23:16 26.3 °C -2.4 °C 1005 hPa SSW 16.3 km/h 17.7 km/h 15% 0 mm 0.0 W/m2
23:26 26.1 °C -2.6 °C 1005 hPa SSW 13 km/h 16.1 km/h 15% 0 mm 0.0 W/m2
23:35 25.6 °C -3 °C 1005 hPa SSW 11.1 km/h 12.9 km/h 15% 0 mm 0.0 W/m2
23:40 25.4 °C -3.1 °C 1005 hPa SSW 13 km/h 13 km/h 15% 0 mm 0.0 W/m2
23:45 25.4 °C -3.1 °C 1005 hPa SSW 7.9 km/h 11.3 km/h 15% 0 mm 0.0 W/m2
23:50 25.2 °C -3.3 °C 1005 hPa SSW 6.4 km/h 9.7 km/h 15% 0 mm 0.0 W/m2
23:55 25.1 °C -2.5 °C 1005 hPa SSW 7.9 km/h 9.7 km/h 16% 0 mm 0.0 W/m2
Canyon Roadhouse, Fishriver Canyon, Namibia
Compliments of Weather Underground - 2.25 mb